Time;durP1;ratioP1;P1;durP2;ratioP2;P2;SDS_P1;SDS_P2;PMS_P1;PMS_P2;Temp;Humidity;BMP_temperature;BMP_pressure;BME280_temperature;BME280_humidity;BME280_pressure;Samples;Min_cycle;Max_cycle;Signal;HPM_P1;HPM_P2
2022/10/01 00:00:33;;;;;;;3.37;3.00;;;10.90;99.90;;;;;;5003461;28;20452;-71
2022/10/01 00:03:00;;;;;;;2.33;2.13;;;10.90;99.90;;;;;;5016899;28;20467;-71
2022/10/01 00:05:25;;;;;;;3.10;2.50;;;10.80;99.90;;;;;;5019732;28;20508;-69
2022/10/01 00:07:51;;;;;;;2.83;2.63;;;10.90;99.90;;;;;;5006034;28;20846;-69
2022/10/01 00:10:17;;;;;;;3.10;2.73;;;10.80;99.90;;;;;;5002146;28;20217;-69
2022/10/01 00:12:46;;;;;;;2.70;2.50;;;10.80;99.90;;;;;;5006674;28;20223;-70
2022/10/01 00:15:14;;;;;;;3.20;2.90;;;10.80;99.90;;;;;;5008864;28;20452;-70
2022/10/01 00:17:39;;;;;;;3.40;2.40;;;10.80;99.90;;;;;;5025200;28;20467;-70
2022/10/01 00:20:06;;;;;;;3.03;2.77;;;10.80;99.90;;;;;;5010579;28;20456;-69
2022/10/01 00:22:33;;;;;;;6.90;2.60;;;10.80;99.90;;;;;;5001098;28;20226;-70
2022/10/01 00:24:59;;;;;;;3.27;2.40;;;10.80;99.90;;;;;;4995750;28;20462;-69
2022/10/01 00:27:25;;;;;;;3.00;2.70;;;10.70;99.90;;;;;;4985536;28;20453;-71
2022/10/01 00:29:52;;;;;;;2.50;2.30;;;10.70;99.90;;;;;;5003998;28;20241;-70
2022/10/01 00:32:17;;;;;;;2.83;2.30;;;10.80;99.90;;;;;;4993611;28;20518;-71
2022/10/01 00:34:43;;;;;;;6.80;2.87;;;10.70;99.90;;;;;;5008909;28;20468;-69
2022/10/01 00:37:09;;;;;;;3.20;2.50;;;10.80;99.90;;;;;;5016566;28;20224;-70
2022/10/01 00:39:35;;;;;;;2.40;2.20;;;10.80;99.90;;;;;;5005537;28;20221;-71
2022/10/01 00:42:04;;;;;;;2.40;2.17;;;10.80;99.90;;;;;;5007321;28;20468;-70
2022/10/01 00:44:36;;;;;;;9.03;2.60;;;10.80;99.90;;;;;;5038419;28;20490;-69
2022/10/01 00:47:18;;;;;;;3.30;2.93;;;10.80;99.90;;;;;;5012832;28;20460;-71
2022/10/01 00:49:46;;;;;;;2.53;2.33;;;10.80;99.90;;;;;;5008036;28;21172;-71
2022/10/01 00:52:17;;;;;;;2.60;2.40;;;10.70;99.90;;;;;;5003665;28;20463;-70
2022/10/01 00:54:51;;;;;;;4.90;2.43;;;10.70;99.90;;;;;;5014346;28;20484;-70
2022/10/01 00:57:22;;;;;;;2.67;2.47;;;10.70;99.90;;;;;;5005388;28;20499;-70
2022/10/01 00:59:50;;;;;;;2.37;2.10;;;10.70;99.90;;;;;;5026180;28;20496;-71
2022/10/01 01:02:15;;;;;;;3.50;2.70;;;10.70;99.90;;;;;;5007077;28;20464;-71
2022/10/01 01:04:41;;;;;;;2.47;2.37;;;10.70;99.90;;;;;;5018990;28;20467;-71
2022/10/01 01:07:08;;;;;;;5.00;2.70;;;10.70;99.90;;;;;;5023540;28;20220;-69
2022/10/01 01:09:38;;;;;;;3.70;2.53;;;10.70;99.90;;;;;;5005787;28;20236;-71
2022/10/01 01:12:23;;;;;;;3.20;2.87;;;10.60;99.90;;;;;;5013905;28;20456;-71
2022/10/01 01:15:07;;;;;;;4.47;2.90;;;10.60;99.90;;;;;;5017720;28;20448;-71
2022/10/01 01:17:53;;;;;;;3.47;2.63;;;10.70;99.90;;;;;;5014555;28;20452;-70
2022/10/01 01:20:55;;;;;;;2.67;2.43;;;10.70;99.90;;;;;;5023569;28;20490;-70
2022/10/01 01:23:53;;;;;;;2.90;2.20;;;10.70;99.90;;;;;;4993549;28;20498;-71
2022/10/01 01:26:48;;;;;;;4.00;2.87;;;10.70;99.90;;;;;;4986443;28;20526;-69
2022/10/01 01:29:21;;;;;;;4.00;2.50;;;10.70;99.90;;;;;;5005018;28;20514;-70
2022/10/01 01:31:47;;;;;;;3.37;2.40;;;10.60;99.90;;;;;;5009669;28;20468;-70
2022/10/01 01:34:20;;;;;;;2.23;2.03;;;10.60;99.90;;;;;;5003795;28;20890;-70
2022/10/01 01:36:57;;;;;;;2.13;1.93;;;10.70;99.90;;;;;;5008753;28;20460;-70
2022/10/01 01:39:27;;;;;;;2.80;2.30;;;10.60;99.90;;;;;;5006310;28;20547;-69
2022/10/01 01:41:58;;;;;;;2.70;2.50;;;10.60;99.90;;;;;;5017000;28;20459;-70
2022/10/01 01:44:29;;;;;;;3.33;2.53;;;10.60;99.90;;;;;;4987734;28;20465;-71
2022/10/01 01:46:56;;;;;;;2.50;2.30;;;10.60;99.90;;;;;;5023808;28;20464;-69
2022/10/01 01:49:22;;;;;;;2.77;2.43;;;10.60;99.90;;;;;;5007753;28;20475;-70
2022/10/01 01:52:14;;;;;;;1.97;1.87;;;10.60;99.90;;;;;;5020429;28;20511;-71
2022/10/01 01:54:43;;;;;;;2.70;2.10;;;10.60;99.90;;;;;;4998889;28;20448;-71
2022/10/01 01:57:11;;;;;;;3.03;2.73;;;10.50;99.90;;;;;;5013049;28;20462;-70
2022/10/01 01:59:39;;;;;;;6.47;2.57;;;10.50;99.90;;;;;;5005735;28;20483;-69
2022/10/01 02:02:06;;;;;;;2.90;2.20;;;10.50;99.90;;;;;;5015972;28;20467;-70
2022/10/01 02:04:43;;;;;;;7.47;2.70;;;10.50;99.90;;;;;;4989126;28;20472;-71
2022/10/01 02:07:24;;;;;;;4.80;2.50;;;10.50;99.90;;;;;;5016025;28;20460;-70
2022/10/01 02:10:07;;;;;;;2.07;1.87;;;10.50;99.90;;;;;;5008994;28;20972;-70
2022/10/01 02:12:53;;;;;;;4.00;2.90;;;10.50;99.90;;;;;;5019752;28;20464;-70
2022/10/01 02:15:28;;;;;;;2.70;2.23;;;10.50;99.90;;;;;;5007071;28;20963;-69
2022/10/01 02:18:12;;;;;;;2.70;2.47;;;10.50;99.90;;;;;;4996007;28;20463;-70
2022/10/01 02:20:41;;;;;;;3.30;2.60;;;10.50;99.90;;;;;;5009914;28;20474;-70
2022/10/01 02:23:12;;;;;;;4.90;2.40;;;10.50;99.90;;;;;;5000516;28;20460;-70
2022/10/01 02:25:43;;;;;;;2.90;2.50;;;10.50;99.90;;;;;;5023961;28;20954;-69
2022/10/01 02:28:14;;;;;;;3.40;2.50;;;10.50;99.90;;;;;;5018210;28;20467;-71
2022/10/01 02:30:43;;;;;;;2.73;2.30;;;10.60;99.90;;;;;;4989289;28;20461;-72
2022/10/01 02:33:12;;;;;;;3.50;2.30;;;10.60;99.90;;;;;;4987125;28;20540;-71
2022/10/01 02:35:42;;;;;;;1.70;1.60;;;10.60;99.90;;;;;;4989877;28;20460;-69
2022/10/01 02:38:09;;;;;;;3.20;2.30;;;10.60;99.90;;;;;;5016389;28;20479;-71
2022/10/01 02:40:40;;;;;;;2.37;2.10;;;10.60;99.90;;;;;;4991181;28;20462;-69
2022/10/01 02:43:37;;;;;;;2.10;2.00;;;10.60;99.90;;;;;;5001500;28;20471;-70
2022/10/01 02:46:15;;;;;;;2.07;1.97;;;10.60;99.90;;;;;;5011283;28;20448;-69
2022/10/01 02:48:41;;;;;;;2.20;2.10;;;10.70;99.90;;;;;;5015043;28;20477;-71
2022/10/01 02:51:25;;;;;;;2.90;2.70;;;10.70;99.90;;;;;;4997093;28;20465;-69
2022/10/01 02:53:59;;;;;;;2.37;1.80;;;10.70;99.90;;;;;;5004317;28;20294;-69
2022/10/01 02:59:10;;;;;;;2.20;1.93;;;10.70;99.90;;;;;;5008117;28;20463;-72
2022/10/01 03:01:36;;;;;;;2.33;2.10;;;10.70;99.90;;;;;;5003732;28;20825;-69
2022/10/01 03:04:02;;;;;;;3.10;1.93;;;10.70;99.90;;;;;;5013360;28;20237;-71
2022/10/01 03:06:28;;;;;;;1.50;1.40;;;10.70;99.90;;;;;;5026740;28;20475;-71
2022/10/01 03:08:53;;;;;;;1.90;1.70;;;10.70;99.90;;;;;;5021912;28;20248;-71
2022/10/01 03:11:20;;;;;;;3.80;1.97;;;10.70;99.90;;;;;;5013500;28;20243;-71
2022/10/01 03:13:45;;;;;;;2.13;1.67;;;10.70;99.90;;;;;;5007652;28;20291;-71
2022/10/01 03:16:11;;;;;;;2.50;2.30;;;10.70;99.90;;;;;;5003371;28;20468;-71
2022/10/01 03:18:37;;;;;;;4.57;2.50;;;10.70;99.90;;;;;;5007810;28;20239;-71
2022/10/01 03:21:03;;;;;;;3.80;2.53;;;10.70;99.90;;;;;;4989501;28;20465;-71
2022/10/01 03:23:28;;;;;;;2.57;2.37;;;10.70;99.90;;;;;;4983054;28;20257;-69
2022/10/01 03:25:54;;;;;;;3.37;2.63;;;10.70;99.90;;;;;;5001822;28;20225;-72
2022/10/01 03:28:20;;;;;;;3.17;1.83;;;10.80;99.90;;;;;;4993714;28;20225;-72
2022/10/01 03:30:45;;;;;;;3.57;2.70;;;10.80;99.90;;;;;;5004953;28;20217;-71
2022/10/01 03:33:11;;;;;;;1.60;1.50;;;10.80;99.90;;;;;;5004218;28;20571;-72
2022/10/01 03:35:36;;;;;;;2.57;2.37;;;10.80;99.90;;;;;;5012942;28;20213;-71
2022/10/01 03:38:02;;;;;;;2.90;1.90;;;10.80;99.90;;;;;;5006787;28;20221;-70
2022/10/01 03:40:28;;;;;;;3.50;1.90;;;10.80;99.90;;;;;;5001667;28;20352;-72
2022/10/01 03:42:54;;;;;;;2.30;2.10;;;10.80;99.90;;;;;;4999125;28;20256;-72
2022/10/01 03:45:19;;;;;;;2.40;2.20;;;10.80;99.90;;;;;;5009929;28;20227;-72
2022/10/01 03:47:51;;;;;;;2.90;2.10;;;10.80;99.90;;;;;;5007896;28;20594;-71
2022/10/01 03:50:16;;;;;;;1.90;1.80;;;10.80;99.90;;;;;;5023596;28;20232;-71
2022/10/01 03:52:44;;;;;;;2.00;1.70;;;10.80;99.90;;;;;;4991170;28;20464;-71
2022/10/01 03:55:10;;;;;;;2.30;1.93;;;10.80;99.90;;;;;;5020900;28;20217;-71
2022/10/01 03:57:36;;;;;;;1.80;1.70;;;10.80;99.90;;;;;;5012753;28;20834;-72
2022/10/01 04:00:03;;;;;;;1.70;1.60;;;10.80;99.90;;;;;;4989283;28;20463;-71
2022/10/01 04:02:37;;;;;;;1.90;1.70;;;10.80;99.90;;;;;;5005351;28;20227;-72
2022/10/01 04:05:03;;;;;;;2.27;2.10;;;10.90;99.90;;;;;;5020561;28;20547;-71
2022/10/01 04:07:28;;;;;;;2.17;2.00;;;10.80;99.90;;;;;;5008642;28;20241;-73
2022/10/01 04:09:54;;;;;;;1.90;1.80;;;10.90;99.90;;;;;;5004886;28;20579;-72
2022/10/01 04:12:19;;;;;;;2.87;2.43;;;10.90;99.90;;;;;;5001216;28;20292;-72
2022/10/01 04:14:45;;;;;;;3.00;2.70;;;10.90;99.90;;;;;;5007935;28;20229;-71
2022/10/01 04:17:11;;;;;;;5.43;2.10;;;10.90;99.90;;;;;;4998716;28;20643;-71
2022/10/01 04:19:36;;;;;;;2.60;2.40;;;10.90;99.90;;;;;;5017862;28;20217;-72
2022/10/01 04:22:02;;;;;;;3.40;1.87;;;10.90;99.90;;;;;;5014802;28;20274;-70
2022/10/01 04:24:28;;;;;;;2.60;2.40;;;10.90;99.90;;;;;;5006257;28;20230;-72
2022/10/01 04:26:53;;;;;;;2.87;1.73;;;10.90;99.90;;;;;;5018731;28;20232;-72
2022/10/01 04:29:19;;;;;;;2.77;2.40;;;10.90;99.90;;;;;;5007332;28;20231;-71
2022/10/01 04:31:45;;;;;;;1.90;1.80;;;10.90;99.90;;;;;;5011328;28;20241;-72
2022/10/01 04:34:10;;;;;;;2.30;2.10;;;10.90;99.90;;;;;;5025919;28;20290;-73
2022/10/01 04:36:36;;;;;;;1.70;1.60;;;10.90;99.90;;;;;;4994669;28;20763;-72
2022/10/01 04:39:01;;;;;;;2.70;2.23;;;10.90;99.90;;;;;;5016060;28;20746;-74
2022/10/01 04:41:29;;;;;;;5.63;2.30;;;10.90;99.90;;;;;;5009984;28;20229;-71
2022/10/01 04:43:55;;;;;;;2.60;2.40;;;10.90;99.90;;;;;;5007380;28;20714;-71
2022/10/01 04:46:20;;;;;;;1.93;1.83;;;10.90;99.90;;;;;;5019677;28;20467;-73
2022/10/01 04:48:48;;;;;;;2.40;2.20;;;10.90;99.90;;;;;;5009500;28;20244;-73
2022/10/01 04:51:14;;;;;;;3.13;2.00;;;10.90;99.90;;;;;;5022747;28;20256;-72
2022/10/01 04:53:40;;;;;;;2.20;2.00;;;10.90;99.90;;;;;;5011742;28;20468;-72
2022/10/01 04:56:06;;;;;;;2.17;1.90;;;10.90;99.90;;;;;;5006400;28;20463;-73
2022/10/01 04:58:32;;;;;;;2.37;2.00;;;10.90;99.90;;;;;;5012961;28;20294;-73
2022/10/01 05:00:57;;;;;;;2.50;2.10;;;10.90;99.90;;;;;;5011982;28;20463;-72
2022/10/01 05:03:23;;;;;;;2.93;2.37;;;10.90;99.90;;;;;;4990068;28;20231;-72
2022/10/01 05:05:49;;;;;;;2.40;2.07;;;10.90;99.90;;;;;;5022473;28;20221;-73
2022/10/01 05:08:14;;;;;;;2.50;2.30;;;10.90;99.90;;;;;;5006288;28;20225;-73
2022/10/01 05:10:40;;;;;;;6.30;1.90;;;10.90;99.90;;;;;;5018819;28;20753;-72
2022/10/01 05:13:06;;;;;;;3.33;2.07;;;10.90;99.90;;;;;;5019203;28;20236;-72
2022/10/01 05:15:32;;;;;;;1.93;1.77;;;10.90;99.90;;;;;;4997998;28;20452;-73
2022/10/01 05:17:57;;;;;;;2.33;1.83;;;10.90;99.90;;;;;;4991382;28;20720;-72
2022/10/01 05:20:25;;;;;;;2.50;2.17;;;10.90;99.90;;;;;;5037956;28;20216;-71
2022/10/01 05:22:51;;;;;;;2.13;1.93;;;10.90;99.90;;;;;;5014388;28;20308;-72
2022/10/01 05:25:18;;;;;;;2.10;1.90;;;10.90;99.90;;;;;;5005736;28;20461;-71
2022/10/01 05:27:44;;;;;;;2.60;2.40;;;10.90;99.90;;;;;;4989405;28;20461;-72
2022/10/01 05:30:13;;;;;;;2.97;2.03;;;10.90;99.90;;;;;;5016599;28;20472;-71
2022/10/01 05:32:38;;;;;;;2.37;2.17;;;10.90;99.90;;;;;;5013285;28;20519;-73
2022/10/01 05:35:05;;;;;;;3.00;1.80;;;10.90;99.90;;;;;;5006935;28;20468;-72
2022/10/01 05:37:32;;;;;;;2.23;2.03;;;10.90;99.90;;;;;;5008781;28;20225;-74
2022/10/01 05:39:58;;;;;;;2.83;2.00;;;11.00;99.90;;;;;;5024389;28;20550;-72
2022/10/01 05:42:24;;;;;;;11.33;2.90;;;10.90;99.90;;;;;;4998061;28;20590;-72
2022/10/01 05:44:50;;;;;;;3.43;2.80;;;11.00;99.90;;;;;;5006431;28;20221;-73
2022/10/01 05:47:16;;;;;;;1.93;1.67;;;11.00;99.90;;;;;;5004310;28;20515;-72
2022/10/01 05:49:42;;;;;;;2.30;1.93;;;11.00;99.90;;;;;;5006779;28;20244;-71
2022/10/01 05:52:12;;;;;;;3.83;2.60;;;11.00;99.90;;;;;;5010201;28;20313;-72
2022/10/01 05:54:37;;;;;;;2.30;2.10;;;11.00;99.90;;;;;;5005399;28;20470;-72
2022/10/01 05:57:04;;;;;;;4.53;2.30;;;10.90;99.90;;;;;;4993719;28;20554;-71
2022/10/01 05:59:30;;;;;;;2.20;2.00;;;11.00;99.90;;;;;;5013820;28;20634;-72
2022/10/01 06:01:55;;;;;;;2.27;1.87;;;11.00;99.90;;;;;;5008657;28;20488;-72
2022/10/01 06:04:21;;;;;;;1.60;1.50;;;11.00;99.90;;;;;;5004254;28;20243;-72
2022/10/01 06:06:47;;;;;;;2.13;1.90;;;11.00;99.90;;;;;;5007470;28;20562;-73
2022/10/01 06:09:13;;;;;;;2.27;1.97;;;11.00;99.90;;;;;;5003274;28;20716;-73
2022/10/01 06:11:39;;;;;;;1.97;1.83;;;11.00;99.90;;;;;;5005884;28;20206;-72
2022/10/01 06:14:05;;;;;;;3.37;3.17;;;11.10;99.90;;;;;;5010127;28;20479;-72
2022/10/01 06:16:30;;;;;;;2.00;1.90;;;11.00;99.90;;;;;;5006484;28;20472;-72
2022/10/01 06:18:56;;;;;;;3.73;2.40;;;11.00;99.90;;;;;;5005344;28;20459;-75
2022/10/01 06:21:26;;;;;;;3.63;2.30;;;11.10;99.90;;;;;;5004550;28;20223;-72
2022/10/01 06:23:52;;;;;;;2.30;2.07;;;11.10;99.90;;;;;;5006631;28;20464;-71
2022/10/01 06:26:19;;;;;;;2.80;1.80;;;11.10;99.90;;;;;;5001918;28;20464;-72
2022/10/01 06:28:47;;;;;;;1.83;1.70;;;11.10;99.90;;;;;;5006106;28;20464;-72
2022/10/01 06:31:13;;;;;;;2.40;1.43;;;11.10;99.90;;;;;;5005330;28;20552;-70
2022/10/01 06:33:38;;;;;;;1.60;1.50;;;11.10;99.90;;;;;;5005420;28;20559;-73
2022/10/01 06:36:04;;;;;;;2.20;1.70;;;11.10;99.90;;;;;;4994997;28;20216;-72
2022/10/01 06:38:30;;;;;;;1.70;1.60;;;11.10;99.90;;;;;;5005015;28;20210;-73
2022/10/01 06:40:58;;;;;;;3.70;2.00;;;11.10;99.90;;;;;;5005892;28;20213;-73
2022/10/01 06:43:25;;;;;;;1.97;1.77;;;11.10;99.90;;;;;;5016433;28;20237;-73
2022/10/01 06:45:52;;;;;;;1.60;1.50;;;11.10;99.90;;;;;;5020603;28;20464;-71
2022/10/01 06:48:19;;;;;;;1.40;1.30;;;11.10;99.90;;;;;;5004502;28;20461;-72
2022/10/01 06:50:47;;;;;;;1.67;1.57;;;11.10;99.90;;;;;;5015203;28;20464;-72
2022/10/01 06:53:14;;;;;;;1.60;1.50;;;11.10;99.90;;;;;;5003459;28;20911;-72
2022/10/01 06:55:40;;;;;;;3.37;1.50;;;11.10;99.90;;;;;;5002548;28;20547;-71
2022/10/01 06:58:15;;;;;;;1.90;1.70;;;11.10;99.90;;;;;;4997501;28;20666;-71
2022/10/01 07:00:42;;;;;;;4.60;1.60;;;11.10;99.90;;;;;;5003600;28;20229;-72
2022/10/01 07:03:11;;;;;;;2.10;1.90;;;11.10;99.90;;;;;;5011166;28;20464;-72
2022/10/01 07:05:38;;;;;;;2.00;1.80;;;11.20;99.90;;;;;;5003264;28;20574;-72
2022/10/01 07:08:04;;;;;;;1.37;1.30;;;11.20;99.90;;;;;;5024532;28;20502;-71
2022/10/01 07:10:31;;;;;;;1.77;1.60;;;11.10;99.90;;;;;;5006773;28;20478;-72
2022/10/01 07:13:06;;;;;;;1.37;1.20;;;11.20;99.90;;;;;;5018147;28;20467;-71
2022/10/01 07:15:32;;;;;;;2.93;1.20;;;11.10;99.90;;;;;;5023963;28;20506;-73
2022/10/01 07:17:58;;;;;;;1.17;1.07;;;11.10;99.90;;;;;;5012223;28;20471;-71
2022/10/01 07:20:23;;;;;;;1.00;1.00;;;11.10;99.90;;;;;;4999626;28;20457;-71
2022/10/01 07:22:58;;;;;;;2.17;1.20;;;11.20;99.90;;;;;;5020502;28;20606;-72
2022/10/01 07:25:25;;;;;;;1.40;1.30;;;11.10;99.90;;;;;;5017966;28;20231;-72
2022/10/01 07:27:59;;;;;;;1.67;1.40;;;11.10;99.90;;;;;;5026652;28;20500;-72
2022/10/01 07:30:26;;;;;;;1.20;1.10;;;11.10;99.90;;;;;;5002206;28;20486;-70
2022/10/01 07:32:53;;;;;;;1.10;1.00;;;11.10;99.90;;;;;;5009396;28;21033;-73
2022/10/01 07:35:19;;;;;;;2.27;1.13;;;11.20;99.90;;;;;;5001660;28;20483;-71
2022/10/01 07:37:49;;;;;;;2.17;1.30;;;11.20;99.90;;;;;;5005416;28;20479;-70
2022/10/01 07:40:17;;;;;;;1.00;1.00;;;11.20;99.90;;;;;;5003158;28;20498;-71
2022/10/01 07:42:52;;;;;;;1.37;1.10;;;11.10;99.90;;;;;;5004919;28;20472;-72
2022/10/01 07:45:20;;;;;;;5.20;1.50;;;11.10;99.90;;;;;;5006030;28;20502;-70
2022/10/01 07:47:57;;;;;;;1.60;1.50;;;11.20;99.90;;;;;;5011018;28;20526;-71
2022/10/01 07:50:24;;;;;;;4.50;2.63;;;11.20;99.90;;;;;;5005574;28;20479;-70
2022/10/01 07:52:59;;;;;;;1.40;1.30;;;11.20;99.90;;;;;;5012142;28;20990;-73
2022/10/01 07:55:29;;;;;;;1.33;1.20;;;11.20;99.90;;;;;;5012927;28;20563;-69
2022/10/01 07:58:01;;;;;;;1.00;1.00;;;11.20;99.90;;;;;;5002335;28;20571;-71
2022/10/01 08:00:29;;;;;;;2.10;1.10;;;11.20;99.90;;;;;;5002606;28;20853;-72
2022/10/01 08:02:55;;;;;;;1.80;0.80;;;11.20;99.90;;;;;;5009244;28;20467;-72
2022/10/01 08:05:27;;;;;;;2.40;1.17;;;11.20;99.90;;;;;;5022445;28;20847;-72
2022/10/01 08:07:57;;;;;;;1.47;1.00;;;11.20;99.90;;;;;;5021514;28;20474;-73
2022/10/01 08:10:23;;;;;;;0.77;0.77;;;11.20;99.90;;;;;;5007087;28;20506;-73
2022/10/01 08:12:49;;;;;;;1.10;1.00;;;11.20;99.90;;;;;;5006415;28;20539;-71
2022/10/01 08:15:16;;;;;;;1.43;1.00;;;11.20;99.90;;;;;;5007011;28;20740;-72
2022/10/01 08:17:45;;;;;;;1.50;1.07;;;11.10;99.90;;;;;;5006242;28;20471;-71
2022/10/01 08:20:12;;;;;;;1.70;1.20;;;11.20;99.90;;;;;;5005002;28;20457;-71
2022/10/01 08:22:38;;;;;;;1.30;1.20;;;11.20;99.90;;;;;;5010336;28;20366;-71
2022/10/01 08:25:04;;;;;;;1.33;1.20;;;11.10;99.90;;;;;;4988439;28;20460;-71
2022/10/01 08:27:30;;;;;;;2.20;1.30;;;11.10;99.90;;;;;;5006591;28;20468;-71
2022/10/01 08:29:56;;;;;;;1.43;1.33;;;11.20;99.90;;;;;;5008999;28;20468;-72
2022/10/01 08:32:23;;;;;;;1.63;0.90;;;11.20;99.90;;;;;;5005179;28;20371;-71
2022/10/01 08:34:50;;;;;;;0.80;0.73;;;11.20;99.90;;;;;;5010117;28;20220;-70
2022/10/01 08:37:16;;;;;;;1.53;1.37;;;11.20;99.90;;;;;;5006442;28;20471;-71
2022/10/01 08:39:42;;;;;;;0.93;0.93;;;11.20;99.90;;;;;;5009880;28;20472;-70
2022/10/01 08:42:20;;;;;;;0.80;0.80;;;11.20;99.90;;;;;;5008193;28;20216;-72
2022/10/01 08:44:49;;;;;;;1.73;1.17;;;11.30;99.90;;;;;;5007894;28;20626;-72
2022/10/01 08:47:27;;;;;;;0.80;0.80;;;11.30;99.90;;;;;;5021343;28;20516;-70
2022/10/01 08:49:58;;;;;;;0.53;0.53;;;11.30;99.90;;;;;;5008533;28;20486;-70
2022/10/01 08:52:29;;;;;;;0.93;0.90;;;11.30;99.90;;;;;;5005743;28;20478;-69
2022/10/01 08:55:08;;;;;;;0.70;0.63;;;11.30;99.90;;;;;;5008035;28;20460;-69
2022/10/01 08:57:42;;;;;;;1.07;1.00;;;11.30;99.90;;;;;;4995264;28;20444;-70
2022/10/01 09:00:13;;;;;;;1.53;0.90;;;11.40;99.90;;;;;;4986409;28;20521;-69
2022/10/01 09:02:41;;;;;;;0.93;0.70;;;11.40;99.90;;;;;;5011232;28;20979;-71
2022/10/01 09:05:15;;;;;;;0.80;0.80;;;11.40;99.90;;;;;;5012086;28;20617;-70
2022/10/01 09:07:47;;;;;;;1.00;1.00;;;11.40;99.90;;;;;;5014444;28;20456;-70
2022/10/01 09:10:29;;;;;;;0.73;0.73;;;11.40;99.90;;;;;;5012380;28;20483;-71
2022/10/01 09:13:13;;;;;;;0.60;0.60;;;11.40;99.90;;;;;;5016172;28;20594;-70
2022/10/01 09:16:01;;;;;;;1.13;0.90;;;11.40;99.90;;;;;;5012604;28;20525;-73
2022/10/01 09:18:54;;;;;;;0.60;0.60;;;11.40;99.90;;;;;;5013384;28;20471;-72
2022/10/01 09:21:48;;;;;;;0.67;0.67;;;11.40;99.90;;;;;;4994856;28;20539;-71
2022/10/01 09:24:20;;;;;;;0.80;0.80;;;11.50;99.90;;;;;;5008805;28;20996;-71
2022/10/01 09:26:50;;;;;;;0.83;0.83;;;11.50;99.90;;;;;;5012725;28;20463;-71
2022/10/01 09:29:26;;;;;;;0.80;0.80;;;11.50;99.90;;;;;;5025194;28;20469;-71
2022/10/01 09:31:53;;;;;;;0.93;0.90;;;11.50;99.90;;;;;;5015583;28;20472;-72
2022/10/01 09:34:34;;;;;;;2.00;0.93;;;11.50;99.90;;;;;;5008369;28;20464;-72
2022/10/01 09:37:20;;;;;;;0.73;0.73;;;11.60;99.90;;;;;;5025130;28;20447;-72
2022/10/01 09:40:11;;;;;;;0.80;0.80;;;11.60;99.90;;;;;;5008943;28;20451;-71
2022/10/01 09:42:37;;;;;;;2.13;1.00;;;11.60;99.90;;;;;;4993775;28;20470;-72
2022/10/01 09:45:05;;;;;;;0.90;0.90;;;11.60;99.90;;;;;;5016365;28;20456;-71
2022/10/01 09:47:32;;;;;;;0.83;0.83;;;11.60;99.90;;;;;;5017815;28;20869;-71
2022/10/01 09:49:59;;;;;;;0.80;0.80;;;11.70;99.90;;;;;;5012644;28;20529;-72
2022/10/01 09:52:38;;;;;;;0.77;0.67;;;11.70;99.90;;;;;;4991786;28;20602;-71
2022/10/01 09:55:20;;;;;;;1.00;0.90;;;11.70;99.90;;;;;;4999357;28;20511;-70
2022/10/01 09:58:00;;;;;;;1.10;1.00;;;11.70;99.90;;;;;;5003893;28;20464;-71
2022/10/01 10:00:26;;;;;;;1.23;0.83;;;11.80;99.90;;;;;;5008913;28;20461;-71
2022/10/01 10:02:53;;;;;;;7.60;3.07;;;11.80;99.90;;;;;;5020867;28;21026;-71
2022/10/01 10:05:22;;;;;;;6.50;3.70;;;11.80;99.90;;;;;;5019104;28;20463;-70
2022/10/01 10:08:01;;;;;;;5.10;2.70;;;11.90;99.90;;;;;;5007983;28;20467;-73
2022/10/01 10:10:38;;;;;;;8.50;5.00;;;11.90;99.90;;;;;;5001944;28;20563;-72
2022/10/01 10:13:10;;;;;;;9.20;5.00;;;11.90;99.90;;;;;;4984369;28;20479;-72
2022/10/01 10:16:09;;;;;;;15.17;6.80;;;12.00;99.90;;;;;;5022728;28;20445;-71
2022/10/01 10:18:38;;;;;;;13.97;7.30;;;12.00;99.90;;;;;;5003714;28;20444;-72
2022/10/01 10:21:07;;;;;;;23.07;9.33;;;12.00;99.90;;;;;;5013823;28;20459;-71
2022/10/01 10:23:33;;;;;;;22.83;9.13;;;12.10;99.90;;;;;;5013627;28;20451;-72
2022/10/01 10:26:05;;;;;;;6.53;2.93;;;12.10;99.90;;;;;;5018911;28;20456;-73
2022/10/01 10:28:44;;;;;;;2.87;2.67;;;12.20;99.90;;;;;;5013711;28;20312;-73
2022/10/01 10:31:15;;;;;;;2.20;1.50;;;12.20;99.90;;;;;;5025035;28;20539;-73
2022/10/01 10:34:06;;;;;;;3.60;2.70;;;12.20;99.90;;;;;;5014125;28;20975;-73
2022/10/01 10:36:35;;;;;;;1.53;1.43;;;12.20;99.90;;;;;;4996767;28;20440;-70
2022/10/01 10:39:04;;;;;;;1.10;1.00;;;12.20;99.90;;;;;;5015436;28;20526;-71
2022/10/01 10:41:31;;;;;;;0.80;0.80;;;12.20;99.90;;;;;;5019358;28;20464;-72
2022/10/01 10:44:03;;;;;;;0.80;0.80;;;12.30;99.90;;;;;;5036930;28;20484;-72
2022/10/01 10:46:34;;;;;;;0.80;0.80;;;12.30;99.90;;;;;;5008944;28;20452;-70
2022/10/01 10:49:05;;;;;;;0.77;0.77;;;12.30;99.90;;;;;;5003007;28;20502;-72
2022/10/01 10:51:47;;;;;;;2.40;2.20;;;12.30;99.90;;;;;;5011579;28;20462;-72
2022/10/01 10:54:29;;;;;;;2.67;1.67;;;12.30;99.90;;;;;;5010810;28;20852;-72
2022/10/01 10:57:15;;;;;;;1.70;1.40;;;12.30;99.90;;;;;;5027599;28;20535;-70
2022/10/01 10:59:40;;;;;;;1.40;1.30;;;12.30;99.90;;;;;;5008668;28;20796;-72
2022/10/01 11:02:15;;;;;;;1.67;1.50;;;12.30;99.90;;;;;;5015662;28;20459;-72
2022/10/01 11:04:44;;;;;;;0.80;0.80;;;12.40;99.90;;;;;;5016986;28;20251;-72
2022/10/01 11:07:12;;;;;;;0.70;0.70;;;12.40;99.90;;;;;;5011603;28;20455;-71
2022/10/01 11:09:53;;;;;;;0.80;0.80;;;12.40;99.90;;;;;;5003650;28;20468;-73
2022/10/01 11:12:37;;;;;;;2.30;0.80;;;12.50;99.90;;;;;;5006977;28;20467;-72
2022/10/01 11:15:24;;;;;;;2.60;2.40;;;12.50;99.90;;;;;;5016357;28;20513;-72
2022/10/01 11:18:14;;;;;;;2.97;1.97;;;12.50;99.90;;;;;;5012720;28;20502;-72
2022/10/01 11:21:19;;;;;;;1.03;1.03;;;12.60;99.90;;;;;;5007232;28;20538;-71
2022/10/01 11:24:07;;;;;;;1.27;0.83;;;12.60;99.90;;;;;;5002224;28;20470;-73
2022/10/01 11:27:03;;;;;;;1.10;1.00;;;12.60;99.90;;;;;;5015837;28;20447;-71
2022/10/01 11:29:53;;;;;;;1.40;1.30;;;12.70;99.90;;;;;;5023433;28;20500;-72
2022/10/01 11:32:38;;;;;;;1.30;1.20;;;12.80;99.90;;;;;;5011686;28;20480;-73
2022/10/01 11:35:28;;;;;;;0.80;0.80;;;12.80;99.90;;;;;;5007900;28;20461;-72
2022/10/01 11:38:34;;;;;;;1.60;1.27;;;12.80;99.90;;;;;;5003864;28;20460;-73
2022/10/01 11:41:27;;;;;;;0.97;0.97;;;12.90;99.90;;;;;;5009421;28;20452;-72
2022/10/01 11:43:59;;;;;;;1.53;1.43;;;12.90;99.90;;;;;;4997224;28;20476;-71
2022/10/01 11:46:40;;;;;;;1.33;1.23;;;12.90;99.90;;;;;;5014556;28;20471;-71
2022/10/01 11:49:27;;;;;;;1.50;1.40;;;12.90;99.90;;;;;;5010832;28;20523;-71
2022/10/01 11:52:03;;;;;;;1.67;1.57;;;13.00;99.90;;;;;;5009548;28;20455;-73
2022/10/01 11:54:32;;;;;;;1.23;1.10;;;13.00;99.90;;;;;;4997884;28;20462;-73
2022/10/01 11:59:52;;;;;;;1.17;1.13;;;13.00;99.90;;;;;;5002894;28;20610;-71
2022/10/01 12:02:38;;;;;;;1.90;1.70;;;13.10;99.90;;;;;;5016852;28;20525;-71
2022/10/01 12:05:15;;;;;;;1.40;1.30;;;13.10;99.90;;;;;;5021261;28;20445;-72
2022/10/01 12:07:48;;;;;;;4.23;1.60;;;13.10;99.90;;;;;;5017974;28;20456;-72
2022/10/01 12:10:29;;;;;;;1.60;1.50;;;13.20;99.90;;;;;;5007162;28;20878;-70
2022/10/01 12:13:14;;;;;;;1.87;1.40;;;13.20;99.90;;;;;;5006871;28;20496;-73
2022/10/01 12:15:50;;;;;;;4.87;1.73;;;13.30;99.90;;;;;;5020627;28;20529;-71
2022/10/01 12:18:30;;;;;;;1.40;1.30;;;13.30;99.90;;;;;;4990817;28;20460;-71
2022/10/01 12:21:00;;;;;;;2.13;1.33;;;13.40;99.90;;;;;;4991873;28;20460;-71
2022/10/01 12:23:34;;;;;;;6.30;1.33;;;13.40;99.90;;;;;;5006309;28;20463;-72
2022/10/01 12:26:28;;;;;;;1.70;1.60;;;13.50;99.90;;;;;;5013029;28;20466;-72
2022/10/01 12:28:58;;;;;;;1.67;1.50;;;13.50;99.90;;;;;;5021597;28;20607;-72
2022/10/01 12:31:50;;;;;;;1.47;1.37;;;13.60;99.90;;;;;;5020457;28;20951;-71
2022/10/01 12:34:27;;;;;;;3.00;2.47;;;13.70;99.90;;;;;;5028203;28;20528;-72
2022/10/01 12:37:09;;;;;;;3.00;2.80;;;13.70;99.90;;;;;;5011541;28;20522;-72
2022/10/01 12:39:49;;;;;;;2.20;2.00;;;13.80;99.90;;;;;;5020479;28;20832;-73
2022/10/01 12:42:41;;;;;;;1.60;1.50;;;13.80;99.90;;;;;;5021229;28;20885;-72
2022/10/01 12:45:20;;;;;;;1.60;1.50;;;13.90;99.90;;;;;;5017848;28;20451;-70
2022/10/01 12:48:05;;;;;;;1.60;1.50;;;13.90;99.90;;;;;;5024529;28;20452;-72
2022/10/01 12:50:53;;;;;;;1.37;1.27;;;14.00;99.90;;;;;;5010338;28;20503;-74
2022/10/01 12:53:22;;;;;;;2.60;1.23;;;14.10;99.90;;;;;;5011636;28;20831;-72
2022/10/01 12:55:55;;;;;;;2.00;1.20;;;14.10;99.90;;;;;;5023292;28;20459;-71
2022/10/01 12:59:07;;;;;;;1.07;1.00;;;14.20;99.90;;;;;;5014673;28;20458;-72
2022/10/01 13:01:43;;;;;;;0.90;0.90;;;14.20;99.90;;;;;;4988909;28;20453;-71
2022/10/01 13:04:30;;;;;;;1.37;1.27;;;14.30;99.90;;;;;;4987843;28;20461;-72
2022/10/01 13:07:18;;;;;;;0.83;0.80;;;14.30;99.90;;;;;;5007420;28;20462;-72
2022/10/01 13:09:56;;;;;;;1.00;1.00;;;14.40;99.90;;;;;;5037102;28;20578;-72
2022/10/01 13:12:56;;;;;;;2.20;0.90;;;14.50;99.90;;;;;;4996289;28;20474;-72
2022/10/01 13:15:36;;;;;;;4.57;1.87;;;14.50;99.90;;;;;;5021227;28;20452;-72